Latest Coastal Weather Observations for Cape Flattery

IDQ60701

Issued at 5:51 am EST Thursday 25 April 2019 (issued every 10 minutes, with the page automatically refreshed every 10 minutes)

About coastal observations | Map of coastal stations | Coastal observations for QLD | Marine services | Other Formats
Station Details ID: 031213 Name: CAPE FLATTERY Lat: -14.97 Lon: 145.31 Height: 18.5 m
Data from the previous 72 hours. | See also: Recent months at Cape Flattery
Date/Time
EST
Wind Sea
Height
m
Swell Vis
km
Cloud Weather Temp
°C
Press
hPa
Rain since
9am
mm
Dir  Spd
kts
Gust
kts
Height
m
Period
s
Dir
25/05:30am E 5 5 - - - - - - - 23.4 1010.2 0.2
25/05:00am E 5 5 - - - - - - - 23.4 1010.1 0.2
25/04:30am E 4 5 - - - - - - - 23.9 1010.0 0.2
25/04:00am ESE 5 6 - - - - - - - 24.0 1010.0 0.2
25/03:30am ESE 4 5 - - - - - - - 24.3 1010.2 0.2
25/03:00am ESE 5 6 - - - - - - - 25.0 1010.3 0.2
25/02:30am SE 7 10 - - - - - - - 25.5 1010.3 0.2
25/02:00am SE 8 10 - - - - - - - 25.6 1010.5 0.2
25/01:30am SE 9 11 - - - - - - - 25.7 1010.7 0.2
25/01:00am SE 8 11 - - - - - - - 25.6 1011.1 0.2
25/12:30am SE 9 13 - - - - - - - 25.7 1011.5 0.2
25/12:00am SE 8 10 - - - - - - - 25.6 1011.8 0.2
 
Date/Time
EST
Wind Sea
Height
m
Swell Vis
km
Cloud Weather Temp
°C
Press
hPa
Rain since
9am
mm
Dir  Spd
kts
Gust
kts
Height
m
Period
s
Dir
24/11:30pm SE 9 12 - - - - - - - 25.7 1012.1 0.2
24/11:00pm SE 9 13 - - - - - - - 26.1 1012.4 0.2
24/10:30pm SE 10 13 - - - - - - - 26.1 1012.4 0.2
24/10:00pm SE 9 14 - - - - - - - 25.9 1012.4 0.2
24/09:30pm SE 10 13 - - - - - - - 26.1 1012.5 0.2
24/09:00pm SE 9 13 - - - - - - - 26.2 1012.5 0.2
24/08:30pm SE 11 15 - - - - - - - 26.2 1012.2 0.2
24/08:00pm SE 11 14 - - - - - - - 26.3 1011.9 0.2
24/07:30pm SE 9 11 - - - - - - - 26.0 1011.6 0.2
24/07:00pm SE 10 12 - - - - - - - 25.9 1011.2 0.2
24/06:30pm SE 10 14 - - - - - - - 26.1 1011.0 0.2
24/06:00pm SE 10 14 - - - - - - - 26.4 1010.9 0.2
24/05:30pm SE 12 16 - - - - - - - 27.0 1010.8 0.2
24/05:00pm SE 12 17 - - - - - - - 27.6 1010.8 0.2
24/04:30pm SE 13 17 - - - - - - - 27.7 1010.5 0.2
24/04:00pm SSE 15 19 - - - - - - - 28.2 1010.5 0.2
24/03:30pm SSE 14 19 - - - - - - - 28.5 1010.4 0.2
24/03:00pm SSE 15 18 - - - - - - - 29.0 1010.6 0.2
24/02:30pm SSE 15 19 - - - - - - - 28.6 1010.6 0.2
24/02:00pm SSE 15 19 - - - - - - - 28.9 1011.0 0.2
24/01:30pm SSE 14 20 - - - - - - - 29.4 1011.5 0.2
24/01:00pm SSE 14 21 - - - - - - - 29.2 1011.8 0.2
24/12:30pm SSE 14 18 - - - - - - - 29.2 1012.1 0.2
24/12:00pm SE 14 19 - - - - - - Recent precip. 29.5 1012.5 0.2
24/11:30am SSE 14 19 - - - - - - - 29.0 1012.9 0.2
24/11:00am SSE 14 18 - - - - - - - 28.6 1013.4 0.0
24/10:30am SE 14 19 - - - - - - - 28.8 1013.6 0.0
24/10:00am SSE 14 18 - - - - - - - 27.7 1013.7 0.0
24/09:30am SSE 13 17 - - - - - - - 27.8 1013.7 0.0
24/09:00am SE 10 15 - - - - - - - 26.1 1013.6 0.0
24/08:30am SE 13 17 - - - - - - - 27.1 1013.4 0.0
24/08:00am SE 11 15 - - - - - - - 27.2 1013.1 0.0
24/07:30am SE 11 15 - - - - - - - 26.7 1012.8 0.0
24/07:00am SE 10 13 - - - - - - - 26.0 1012.6 0.0
24/06:30am SSE 9 14 - - - - - - - 25.9 1012.3 0.0
24/06:00am SE 10 14 - - - - - - - 25.8 1012.0 0.0
24/05:30am SE 11 15 - - - - - - - 25.8 1011.9 0.0
24/05:00am SE 11 15 - - - - - - - 25.8 1011.7 0.0
24/04:30am SE 12 16 - - - - - - - 25.7 1011.5 0.0
24/04:00am SE 12 17 - - - - - - - 25.6 1011.4 0.0
24/03:30am SE 11 16 - - - - - - - 25.6 1011.5 0.0
24/03:00am SE 12 16 - - - - - - - 25.9 1011.8 0.0
24/02:30am SE 12 16 - - - - - - - 25.9 1011.9 0.0
24/02:00am SE 12 17 - - - - - - - 25.8 1012.0 0.0
24/01:30am SE 11 16 - - - - - - - 25.8 1012.2 0.0
24/01:00am SE 14 19 - - - - - - - 26.0 1012.4 0.0
24/12:30am SE 13 17 - - - - - - - 25.9 1012.6 0.0
24/12:00am SE 12 18 - - - - - - - 26.0 1012.9 0.0
 
Date/Time
EST
Wind Sea
Height
m
Swell Vis
km
Cloud Weather Temp
°C
Press
hPa
Rain since
9am
mm
Dir  Spd
kts
Gust
kts
Height
m
Period
s
Dir
23/11:30pm SE 13 18 - - - - - - - 26.0 1013.1 0.0
23/11:00pm SE 14 18 - - - - - - - 26.2 1013.4 0.0
23/10:30pm SE 13 19 - - - - - - - 26.1 1013.5 0.0
23/10:00pm SE 14 20 - - - - - - - 26.1 1013.5 0.0
23/09:30pm SE 14 19 - - - - - - - 26.1 1013.6 0.0
23/09:00pm SE 14 19 - - - - - - - 26.1 1013.5 0.0
23/08:30pm SE 15 21 - - - - - - - 26.1 1013.2 0.0
23/08:00pm SE 14 19 - - - - - - - 26.2 1013.0 0.0
23/07:30pm SE 16 20 - - - - - - - 26.3 1012.5 0.0
23/07:00pm SSE 15 20 - - - - - - - 26.4 1012.3 0.0
23/06:30pm SSE 15 20 - - - - - - - 26.4 1012.2 0.0
23/06:00pm SSE 15 19 - - - - - - - 26.6 1012.1 0.0
23/05:30pm SSE 14 18 - - - - - - - 26.6 1012.0 0.0
23/05:00pm SSE 15 22 - - - - - - - 27.2 1011.8 0.0
23/04:30pm SSE 15 20 - - - - - - - 27.7 1011.4 0.0
23/04:00pm SSE 15 20 - - - - - - - 28.5 1011.2 0.0
23/03:30pm SSE 16 21 - - - - - - - 28.0 1011.2 0.0
23/03:00pm SSE 15 21 - - - - - - - 28.9 1011.4 0.0
23/02:30pm SE 16 20 - - - - - - - 29.5 1011.5 0.0
23/02:00pm SSE 16 20 - - - - - - - 29.4 1012.0 0.0
23/01:30pm SE 16 20 - - - - - - - 29.3 1012.4 0.0
23/01:00pm SE 15 19 - - - - - - - 29.7 1012.7 0.0
23/12:30pm SE 15 20 - - - - - - - 29.5 1013.2 0.0
23/12:00pm SE 15 20 - - - - - - - 29.6 1013.5 0.0
23/11:30am SE 14 19 - - - - - - - 30.2 1013.8 0.0
23/11:00am SE 16 20 - - - - - - - 29.4 1014.2 0.0
23/10:30am SE 14 18 - - - - - - - 29.3 1014.5 0.0
23/10:00am SE 14 19 - - - - - - - 29.0 1014.7 0.0
23/09:30am SE 13 18 - - - - - - - 28.8 1014.6 0.0
23/09:00am SE 13 19 - - - - - - - 28.5 1014.3 -
23/08:30am SE 12 16 - - - - - - - 28.2 1014.2 -
23/08:00am SE 12 16 - - - - - - - 26.9 1014.1 -
23/07:30am SE 13 18 - - - - - - - 27.1 1013.8 -
23/07:00am SE 10 14 - - - - - - - 26.0 1013.6 -
23/06:30am SE 12 17 - - - - - - - 25.9 1013.2 -
23/06:00am SE 12 17 - - - - - - - 25.8 1012.8 -
23/05:30am SE 11 16 - - - - - - - 25.7 1012.5 -
23/05:00am SE 13 18 - - - - - - - 25.9 1012.3 -
23/04:30am SE 13 18 - - - - - - - 26.0 1012.2 -
23/04:00am SE 13 17 - - - - - - - 25.9 1012.3 -
23/03:30am SE 13 18 - - - - - - - 26.0 1012.3 -
23/03:00am SE 13 17 - - - - - - - 26.0 1012.5 0.0
23/02:30am SE 12 15 - - - - - - - 26.0 1012.7 -
23/02:00am SE 12 16 - - - - - - - 26.0 1012.8 -
23/01:30am SE 12 16 - - - - - - - 26.0 1013.0 -
23/01:00am SE 11 18 - - - - - - - 26.0 1013.3 -
23/12:30am SE 13 18 - - - - - - - 26.3 1013.4 -
23/12:00am SE 12 17 - - - - - - - 26.3 1013.7 -
 
Date/Time
EST
Wind Sea
Height
m
Swell Vis
km
Cloud Weather Temp
°C
Press
hPa
Rain since
9am
mm
Dir  Spd
kts
Gust
kts
Height
m
Period
s
Dir
22/11:30pm SE 13 18 - - - - - - - 26.3 1013.8 -
22/11:00pm SE 13 18 - - - - - - - 26.4 1013.9 -
22/10:30pm SE 13 19 - - - - - - - 26.4 1013.9 -
22/10:00pm SE 13 18 - - - - - - - 26.3 1013.9 -
22/09:30pm SE 14 19 - - - - - - - 26.2 1014.0 -
22/09:00pm SE 13 17 - - - - - - - 26.2 1013.8 0.0
22/08:30pm SE 13 17 - - - - - - - 26.3 1013.6 -
22/08:00pm SE 14 17 - - - - - - - 26.4 1013.4 -
22/07:30pm SE 13 19 - - - - - - - 26.1 1012.9 -
22/07:00pm SE 13 18 - - - - - - - 25.7 1012.5 -
22/06:30pm SE 15 19 - - - - - - - 25.7 1012.2 -
22/06:00pm SE 15 21 - - - - - - - 26.1 1011.9 -
22/05:30pm SE 17 24 - - - - - - - 26.8 1011.8 -
22/05:00pm SE 15 19 - - - - - - - 27.4 1011.5 -
22/04:30pm SSE 13 19 - - - - - - - 27.8 1011.4 -
22/04:00pm SE 14 21 - - - - - - - 27.9 1011.3 -
22/03:30pm SSE 13 16 - - - - - - - 28.3 1011.2 -
22/03:00pm SSE 15 20 - - - - - - - 27.9 1011.1 -
22/02:30pm SSE 17 22 - - - - - - - 28.4 1011.2 -
22/02:00pm SE 15 21 - - - - - - - 28.7 1011.3 -
22/01:30pm SE 15 21 - - - - - - - 28.9 1011.6 -
22/01:00pm - - - - - - - - - - 29.0 1011.8 -
22/12:30pm SE 15 19 - - - - - - - 29.0 1011.9 0.0
22/12:00pm SE 15 21 - - - - - - - 29.5 1012.2 0.0
22/11:30am SE 13 17 - - - - - - - 29.7 1012.7 0.0
22/11:00am SE 15 19 - - - - - - - 29.3 1013.0 0.0
22/10:30am SE 14 21 - - - - - - - 29.2 1013.5 0.0
22/10:00am SE 14 19 - - - - - - - 29.0 1013.7 0.0
22/09:30am SE 14 19 - - - - - - - 28.8 1013.5 0.0
22/09:00am SE 15 21 - - - - - - - 28.3 1013.1 0.6
22/08:30am SE 14 19 - - - - - - - 27.6 1012.8 0.6
22/08:00am SE 13 19 - - - - - - - 26.5 1012.6 0.6
22/07:30am SE 16 25 - - - - - - - 24.8 1012.3 0.6
22/07:24am SE 15 25 - - - - - - - 26.4 1012.3 0.2
22/07:00am SE 12 16 - - - - - - - 26.3 1012.1 0.2
22/06:30am SE 13 19 - - - - - - - 26.0 1011.7 0.2
22/06:00am SE 13 16 - - - - - - - 26.1 1011.4 0.2

Other formats

Comma delimited format used in spreadsheet applications
http://www.bom.gov.au/fwo/IDQ60701/IDQ60701.94188.axf

JavaScript Object Notation format (JSON) in row-major order
http://www.bom.gov.au/fwo/IDQ60701/IDQ60701.94188.json

Data quality

Most of these data are generated automatically and are frequently updated. Quality checks on data are not normally performed. It is possible for incorrect values to appear. Refer to information at About Latest Weather Observations and please check the disclaimer before using these data.